sensor_id;sensor_type;location;lat;lon;timestamp;pressure;altitude;pressure_sealevel;temperature
65290;BMP180;51893;59.754;10.110;2022-11-15T00:01:59;101976.00;;;5.40
65290;BMP180;51893;59.754;10.110;2022-11-15T00:04:30;101975.00;;;5.40
65290;BMP180;51893;59.754;10.110;2022-11-15T00:07:01;101973.80;;;5.40
65290;BMP180;51893;59.754;10.110;2022-11-15T00:09:30;101973.80;;;5.40
65290;BMP180;51893;59.754;10.110;2022-11-15T00:11:58;101969.40;;;5.40
65290;BMP180;51893;59.754;10.110;2022-11-15T00:14:27;101968.60;;;5.32
65290;BMP180;51893;59.754;10.110;2022-11-15T00:16:54;101968.40;;;5.40
65290;BMP180;51893;59.754;10.110;2022-11-15T00:19:22;101963.20;;;5.40
65290;BMP180;51893;59.754;10.110;2022-11-15T00:21:50;101964.00;;;5.40
65290;BMP180;51893;59.754;10.110;2022-11-15T00:24:18;101961.60;;;5.40
65290;BMP180;51893;59.754;10.110;2022-11-15T00:26:46;101962.60;;;5.40
65290;BMP180;51893;59.754;10.110;2022-11-15T00:29:15;101958.60;;;5.38
65290;BMP180;51893;59.754;10.110;2022-11-15T00:31:45;101956.80;;;5.32
65290;BMP180;51893;59.754;10.110;2022-11-15T00:34:13;101953.20;;;5.38
65290;BMP180;51893;59.754;10.110;2022-11-15T00:36:52;101952.20;;;5.40
65290;BMP180;51893;59.754;10.110;2022-11-15T00:39:23;101948.20;;;5.40
65290;BMP180;51893;59.754;10.110;2022-11-15T00:41:51;101941.20;;;5.40
65290;BMP180;51893;59.754;10.110;2022-11-15T00:44:20;101940.60;;;5.40
65290;BMP180;51893;59.754;10.110;2022-11-15T00:46:49;101936.40;;;5.40
65290;BMP180;51893;59.754;10.110;2022-11-15T00:49:17;101932.20;;;5.40
65290;BMP180;51893;59.754;10.110;2022-11-15T00:51:48;101927.00;;;5.40
65290;BMP180;51893;59.754;10.110;2022-11-15T00:54:16;101925.40;;;5.40
65290;BMP180;51893;59.754;10.110;2022-11-15T00:56:49;101924.80;;;5.40
65290;BMP180;51893;59.754;10.110;2022-11-15T00:59:17;101921.60;;;5.40
65290;BMP180;51893;59.754;10.110;2022-11-15T01:01:48;101915.80;;;5.40
65290;BMP180;51893;59.754;10.110;2022-11-15T01:04:17;101904.20;;;5.40
65290;BMP180;51893;59.754;10.110;2022-11-15T01:06:47;101899.40;;;5.46
65290;BMP180;51893;59.754;10.110;2022-11-15T01:09:15;101891.60;;;5.48
65290;BMP180;51893;59.754;10.110;2022-11-15T01:11:46;101886.40;;;5.40
65290;BMP180;51893;59.754;10.110;2022-11-15T01:14:15;101883.80;;;5.40
65290;BMP180;51893;59.754;10.110;2022-11-15T01:16:49;101877.60;;;5.30
65290;BMP180;51893;59.754;10.110;2022-11-15T01:19:18;101881.80;;;5.30
65290;BMP180;51893;59.754;10.110;2022-11-15T01:21:51;101878.20;;;5.30
65290;BMP180;51893;59.754;10.110;2022-11-15T01:24:19;101879.80;;;5.30
65290;BMP180;51893;59.754;10.110;2022-11-15T01:26:48;101882.00;;;5.30
65290;BMP180;51893;59.754;10.110;2022-11-15T01:29:16;101874.00;;;5.30
65290;BMP180;51893;59.754;10.110;2022-11-15T01:31:44;101873.80;;;5.20
65290;BMP180;51893;59.754;10.110;2022-11-15T01:34:12;101875.20;;;5.20
65290;BMP180;51893;59.754;10.110;2022-11-15T01:36:42;101876.80;;;5.20
65290;BMP180;51893;59.754;10.110;2022-11-15T01:39:11;101876.80;;;5.20
65290;BMP180;51893;59.754;10.110;2022-11-15T01:41:39;101878.60;;;5.20
65290;BMP180;51893;59.754;10.110;2022-11-15T01:44:54;101875.60;;;5.18
65290;BMP180;51893;59.754;10.110;2022-11-15T01:47:52;101872.60;;;5.20
65290;BMP180;51893;59.754;10.110;2022-11-15T01:50:31;101866.80;;;5.20
65290;BMP180;51893;59.754;10.110;2022-11-15T01:53:01;101861.40;;;5.20
65290;BMP180;51893;59.754;10.110;2022-11-15T01:55:29;101862.60;;;5.20
65290;BMP180;51893;59.754;10.110;2022-11-15T01:58:03;101871.80;;;5.16
65290;BMP180;51893;59.754;10.110;2022-11-15T02:00:33;101872.20;;;5.20
65290;BMP180;51893;59.754;10.110;2022-11-15T02:03:02;101880.80;;;5.20
65290;BMP180;51893;59.754;10.110;2022-11-15T02:05:32;101880.80;;;5.10
65290;BMP180;51893;59.754;10.110;2022-11-15T02:08:01;101890.60;;;5.10
65290;BMP180;51893;59.754;10.110;2022-11-15T02:10:29;101889.40;;;5.00
65290;BMP180;51893;59.754;10.110;2022-11-15T02:13:01;101890.40;;;5.10
65290;BMP180;51893;59.754;10.110;2022-11-15T02:15:49;101889.20;;;5.10
65290;BMP180;51893;59.754;10.110;2022-11-15T02:18:47;101897.80;;;5.10
65290;BMP180;51893;59.754;10.110;2022-11-15T02:27:35;101894.00;;;5.12
65290;BMP180;51893;59.754;10.110;2022-11-15T02:36:01;101893.20;;;5.24
65290;BMP180;51893;59.754;10.110;2022-11-15T02:39:00;101892.80;;;5.20
65290;BMP180;51893;59.754;10.110;2022-11-15T02:41:57;101892.60;;;5.20
65290;BMP180;51893;59.754;10.110;2022-11-15T02:44:45;101895.60;;;5.30
65290;BMP180;51893;59.754;10.110;2022-11-15T02:47:17;101890.20;;;5.30
65290;BMP180;51893;59.754;10.110;2022-11-15T02:49:52;101890.00;;;5.30
65290;BMP180;51893;59.754;10.110;2022-11-15T02:52:25;101889.80;;;5.30
65290;BMP180;51893;59.754;10.110;2022-11-15T02:54:59;101888.00;;;5.30
65290;BMP180;51893;59.754;10.110;2022-11-15T02:57:45;101893.80;;;5.30
65290;BMP180;51893;59.754;10.110;2022-11-15T03:00:21;101892.80;;;5.40
65290;BMP180;51893;59.754;10.110;2022-11-15T03:03:18;101890.20;;;5.40
65290;BMP180;51893;59.754;10.110;2022-11-15T03:11:23;101882.60;;;5.40
65290;BMP180;51893;59.754;10.110;2022-11-15T03:14:25;101879.40;;;5.42
65290;BMP180;51893;59.754;10.110;2022-11-15T03:19:54;101872.80;;;5.42
65290;BMP180;51893;59.754;10.110;2022-11-15T03:22:43;101867.20;;;5.50
65290;BMP180;51893;59.754;10.110;2022-11-15T03:25:19;101862.00;;;5.32
65290;BMP180;51893;59.754;10.110;2022-11-15T03:27:53;101857.20;;;5.20
65290;BMP180;51893;59.754;10.110;2022-11-15T03:30:23;101865.20;;;5.10
65290;BMP180;51893;59.754;10.110;2022-11-15T03:32:56;101860.00;;;5.10
65290;BMP180;51893;59.754;10.110;2022-11-15T03:35:40;101855.00;;;5.10
65290;BMP180;51893;59.754;10.110;2022-11-15T03:38:26;101843.00;;;5.10
65290;BMP180;51893;59.754;10.110;2022-11-15T03:41:04;101838.60;;;5.10
65290;BMP180;51893;59.754;10.110;2022-11-15T03:49:04;101836.40;;;5.00
65290;BMP180;51893;59.754;10.110;2022-11-15T03:51:34;101836.80;;;5.00
65290;BMP180;51893;59.754;10.110;2022-11-15T03:54:04;101835.80;;;5.00
65290;BMP180;51893;59.754;10.110;2022-11-15T03:56:33;101841.00;;;5.00
65290;BMP180;51893;59.754;10.110;2022-11-15T03:59:01;101840.40;;;4.92
65290;BMP180;51893;59.754;10.110;2022-11-15T04:01:29;101840.00;;;4.90
65290;BMP180;51893;59.754;10.110;2022-11-15T04:03:59;101835.20;;;5.00
65290;BMP180;51893;59.754;10.110;2022-11-15T04:06:28;101829.00;;;5.00
65290;BMP180;51893;59.754;10.110;2022-11-15T04:08:56;101833.20;;;4.90
65290;BMP180;51893;59.754;10.110;2022-11-15T04:11:24;101832.40;;;4.90
65290;BMP180;51893;59.754;10.110;2022-11-15T04:13:53;101829.40;;;4.90
65290;BMP180;51893;59.754;10.110;2022-11-15T04:16:21;101833.60;;;4.90
65290;BMP180;51893;59.754;10.110;2022-11-15T04:18:49;101842.20;;;4.92
65290;BMP180;51893;59.754;10.110;2022-11-15T04:21:38;101841.60;;;5.00
65290;BMP180;51893;59.754;10.110;2022-11-15T04:24:25;101853.20;;;5.00
65290;BMP180;51893;59.754;10.110;2022-11-15T04:26:54;101856.20;;;4.90
65290;BMP180;51893;59.754;10.110;2022-11-15T04:29:22;101858.60;;;4.90
65290;BMP180;51893;59.754;10.110;2022-11-15T04:32:06;101856.00;;;4.90
65290;BMP180;51893;59.754;10.110;2022-11-15T04:34:34;101864.60;;;4.80
65290;BMP180;51893;59.754;10.110;2022-11-15T04:37:03;101863.40;;;4.80
65290;BMP180;51893;59.754;10.110;2022-11-15T04:39:44;101871.80;;;4.70
65290;BMP180;51893;59.754;10.110;2022-11-15T04:42:13;101866.40;;;4.72
65290;BMP180;51893;59.754;10.110;2022-11-15T04:44:42;101872.00;;;4.80
65290;BMP180;51893;59.754;10.110;2022-11-15T04:47:10;101880.00;;;4.80
65290;BMP180;51893;59.754;10.110;2022-11-15T04:49:43;101873.40;;;4.80
65290;BMP180;51893;59.754;10.110;2022-11-15T04:52:11;101872.80;;;4.80
65290;BMP180;51893;59.754;10.110;2022-11-15T04:54:47;101871.00;;;4.80
65290;BMP180;51893;59.754;10.110;2022-11-15T04:57:16;101875.60;;;4.84
65290;BMP180;51893;59.754;10.110;2022-11-15T04:59:48;101872.00;;;4.90
65290;BMP180;51893;59.754;10.110;2022-11-15T05:02:16;101881.80;;;4.90
65290;BMP180;51893;59.754;10.110;2022-11-15T05:04:46;101877.00;;;4.92
65290;BMP180;51893;59.754;10.110;2022-11-15T05:07:14;101873.80;;;5.00
65290;BMP180;51893;59.754;10.110;2022-11-15T05:09:44;101880.60;;;5.00
65290;BMP180;51893;59.754;10.110;2022-11-15T05:12:13;101883.60;;;5.00
65290;BMP180;51893;59.754;10.110;2022-11-15T05:14:41;101885.40;;;5.00
65290;BMP180;51893;59.754;10.110;2022-11-15T05:17:11;101889.80;;;5.00
65290;BMP180;51893;59.754;10.110;2022-11-15T05:19:40;101888.60;;;5.00
65290;BMP180;51893;59.754;10.110;2022-11-15T05:22:09;101889.60;;;4.92
65290;BMP180;51893;59.754;10.110;2022-11-15T05:24:37;101900.00;;;4.90
65290;BMP180;51893;59.754;10.110;2022-11-15T05:27:05;101899.80;;;4.90
65290;BMP180;51893;59.754;10.110;2022-11-15T05:29:33;101905.20;;;4.90
65290;BMP180;51893;59.754;10.110;2022-11-15T05:32:05;101902.60;;;4.90
65290;BMP180;51893;59.754;10.110;2022-11-15T05:34:33;101900.80;;;4.90
65290;BMP180;51893;59.754;10.110;2022-11-15T05:37:03;101901.80;;;4.90
65290;BMP180;51893;59.754;10.110;2022-11-15T05:39:31;101896.00;;;4.90
65290;BMP180;51893;59.754;10.110;2022-11-15T05:42:15;101897.40;;;4.90
65290;BMP180;51893;59.754;10.110;2022-11-15T05:44:48;101898.20;;;4.90
65290;BMP180;51893;59.754;10.110;2022-11-15T05:47:25;101898.20;;;4.90
65290;BMP180;51893;59.754;10.110;2022-11-15T05:49:56;101903.00;;;4.90
65290;BMP180;51893;59.754;10.110;2022-11-15T05:52:30;101902.20;;;4.90
65290;BMP180;51893;59.754;10.110;2022-11-15T05:55:04;101905.00;;;4.90
65290;BMP180;51893;59.754;10.110;2022-11-15T05:57:36;101909.60;;;4.90
65290;BMP180;51893;59.754;10.110;2022-11-15T06:00:05;101915.00;;;4.90
65290;BMP180;51893;59.754;10.110;2022-11-15T06:02:36;101915.40;;;4.80
65290;BMP180;51893;59.754;10.110;2022-11-15T06:05:09;101919.20;;;4.80
65290;BMP180;51893;59.754;10.110;2022-11-15T06:07:38;101927.20;;;4.80
65290;BMP180;51893;59.754;10.110;2022-11-15T06:10:08;101925.80;;;4.80
65290;BMP180;51893;59.754;10.110;2022-11-15T06:12:36;101919.80;;;4.90
65290;BMP180;51893;59.754;10.110;2022-11-15T06:15:06;101914.00;;;4.90
65290;BMP180;51893;59.754;10.110;2022-11-15T06:17:38;101909.20;;;4.90
65290;BMP180;51893;59.754;10.110;2022-11-15T06:20:07;101911.80;;;4.90
65290;BMP180;51893;59.754;10.110;2022-11-15T06:22:40;101909.20;;;5.00
65290;BMP180;51893;59.754;10.110;2022-11-15T06:25:24;101913.40;;;5.00
65290;BMP180;51893;59.754;10.110;2022-11-15T06:27:58;101918.80;;;5.00
65290;BMP180;51893;59.754;10.110;2022-11-15T06:30:27;101914.00;;;5.00
65290;BMP180;51893;59.754;10.110;2022-11-15T06:33:04;101917.80;;;5.00
65290;BMP180;51893;59.754;10.110;2022-11-15T06:35:37;101917.20;;;4.90
65290;BMP180;51893;59.754;10.110;2022-11-15T06:38:10;101921.80;;;4.90
65290;BMP180;51893;59.754;10.110;2022-11-15T06:40:39;101923.00;;;4.92
65290;BMP180;51893;59.754;10.110;2022-11-15T06:43:07;101926.00;;;5.00
65290;BMP180;51893;59.754;10.110;2022-11-15T06:45:37;101927.80;;;4.98
65290;BMP180;51893;59.754;10.110;2022-11-15T06:48:08;101929.40;;;4.90
65290;BMP180;51893;59.754;10.110;2022-11-15T06:50:38;101929.80;;;4.90
65290;BMP180;51893;59.754;10.110;2022-11-15T06:53:07;101935.20;;;4.90
65290;BMP180;51893;59.754;10.110;2022-11-15T06:55:40;101943.60;;;4.92
65290;BMP180;51893;59.754;10.110;2022-11-15T06:58:09;101937.40;;;4.90
65290;BMP180;51893;59.754;10.110;2022-11-15T07:00:42;101949.00;;;4.90
65290;BMP180;51893;59.754;10.110;2022-11-15T07:03:14;101946.20;;;4.98
65290;BMP180;51893;59.754;10.110;2022-11-15T07:05:50;101959.60;;;4.98
65290;BMP180;51893;59.754;10.110;2022-11-15T07:08:20;101967.20;;;4.90
65290;BMP180;51893;59.754;10.110;2022-11-15T07:10:50;101964.40;;;4.90
65290;BMP180;51893;59.754;10.110;2022-11-15T07:13:25;101973.00;;;4.88
65290;BMP180;51893;59.754;10.110;2022-11-15T07:15:53;101983.80;;;4.90
65290;BMP180;51893;59.754;10.110;2022-11-15T07:18:21;101976.20;;;4.90
65290;BMP180;51893;59.754;10.110;2022-11-15T07:20:53;101979.00;;;4.90
65290;BMP180;51893;59.754;10.110;2022-11-15T07:23:22;101983.00;;;4.94
65290;BMP180;51893;59.754;10.110;2022-11-15T07:25:51;101985.60;;;4.90
65290;BMP180;51893;59.754;10.110;2022-11-15T07:28:20;101988.40;;;5.00
65290;BMP180;51893;59.754;10.110;2022-11-15T07:30:49;101993.40;;;5.00
65290;BMP180;51893;59.754;10.110;2022-11-15T07:33:18;101997.40;;;5.10
65290;BMP180;51893;59.754;10.110;2022-11-15T07:35:46;102001.00;;;5.10
65290;BMP180;51893;59.754;10.110;2022-11-15T07:38:17;102001.00;;;5.20
65290;BMP180;51893;59.754;10.110;2022-11-15T07:40:56;101998.20;;;5.22
65290;BMP180;51893;59.754;10.110;2022-11-15T07:43:28;101997.20;;;5.30
65290;BMP180;51893;59.754;10.110;2022-11-15T07:46:06;101991.80;;;5.30
65290;BMP180;51893;59.754;10.110;2022-11-15T07:48:38;101991.20;;;5.20
65290;BMP180;51893;59.754;10.110;2022-11-15T07:51:14;101998.20;;;5.20
65290;BMP180;51893;59.754;10.110;2022-11-15T07:53:43;102000.60;;;5.30
65290;BMP180;51893;59.754;10.110;2022-11-15T07:56:16;102004.40;;;5.32
65290;BMP180;51893;59.754;10.110;2022-11-15T07:58:53;102006.20;;;5.40
65290;BMP180;51893;59.754;10.110;2022-11-15T08:01:28;102007.40;;;5.40
65290;BMP180;51893;59.754;10.110;2022-11-15T08:03:56;102006.40;;;5.48
65290;BMP180;51893;59.754;10.110;2022-11-15T08:06:24;102004.60;;;5.50
65290;BMP180;51893;59.754;10.110;2022-11-15T08:08:53;102011.00;;;5.50
65290;BMP180;51893;59.754;10.110;2022-11-15T08:11:21;102011.60;;;5.50
65290;BMP180;51893;59.754;10.110;2022-11-15T08:13:51;102011.60;;;5.50
65290;BMP180;51893;59.754;10.110;2022-11-15T08:16:20;102010.40;;;5.50
65290;BMP180;51893;59.754;10.110;2022-11-15T08:18:49;102009.60;;;5.50
65290;BMP180;51893;59.754;10.110;2022-11-15T08:21:22;102012.00;;;5.52
65290;BMP180;51893;59.754;10.110;2022-11-15T08:23:53;102017.80;;;5.60
65290;BMP180;51893;59.754;10.110;2022-11-15T08:26:29;102019.00;;;5.62
65290;BMP180;51893;59.754;10.110;2022-11-15T08:28:58;102020.40;;;5.70
65290;BMP180;51893;59.754;10.110;2022-11-15T08:31:26;102019.40;;;5.70
65290;BMP180;51893;59.754;10.110;2022-11-15T08:33:55;102027.60;;;5.80
65290;BMP180;51893;59.754;10.110;2022-11-15T08:36:24;102025.80;;;5.80
65290;BMP180;51893;59.754;10.110;2022-11-15T08:38:53;102028.20;;;5.90
65290;BMP180;51893;59.754;10.110;2022-11-15T08:41:36;102034.40;;;5.90
65290;BMP180;51893;59.754;10.110;2022-11-15T08:44:05;102038.40;;;5.90
65290;BMP180;51893;59.754;10.110;2022-11-15T08:46:34;102037.80;;;5.90
65290;BMP180;51893;59.754;10.110;2022-11-15T08:49:01;102038.40;;;6.00
65290;BMP180;51893;59.754;10.110;2022-11-15T08:51:29;102041.40;;;6.00
65290;BMP180;51893;59.754;10.110;2022-11-15T08:53:57;102042.60;;;6.00
65290;BMP180;51893;59.754;10.110;2022-11-15T08:56:27;102042.40;;;6.02
65290;BMP180;51893;59.754;10.110;2022-11-15T08:58:56;102044.40;;;6.08
65290;BMP180;51893;59.754;10.110;2022-11-15T09:01:24;102042.60;;;6.10
65290;BMP180;51893;59.754;10.110;2022-11-15T09:03:52;102046.40;;;6.20
65290;BMP180;51893;59.754;10.110;2022-11-15T09:06:25;102046.60;;;6.20
65290;BMP180;51893;59.754;10.110;2022-11-15T09:08:53;102044.80;;;6.20
65290;BMP180;51893;59.754;10.110;2022-11-15T09:11:22;102046.60;;;6.20
65290;BMP180;51893;59.754;10.110;2022-11-15T09:13:52;102047.80;;;6.20
65290;BMP180;51893;59.754;10.110;2022-11-15T09:16:23;102049.40;;;6.20
65290;BMP180;51893;59.754;10.110;2022-11-15T09:18:53;102046.00;;;6.20
65290;BMP180;51893;59.754;10.110;2022-11-15T09:21:22;102044.40;;;6.20
65290;BMP180;51893;59.754;10.110;2022-11-15T09:23:52;102044.00;;;6.20
65290;BMP180;51893;59.754;10.110;2022-11-15T09:26:21;102047.60;;;6.20
65290;BMP180;51893;59.754;10.110;2022-11-15T09:28:48;102052.80;;;6.20
65290;BMP180;51893;59.754;10.110;2022-11-15T09:31:16;102055.60;;;6.20
65290;BMP180;51893;59.754;10.110;2022-11-15T09:33:55;102052.20;;;6.18
65290;BMP180;51893;59.754;10.110;2022-11-15T09:36:31;102052.60;;;6.12
65290;BMP180;51893;59.754;10.110;2022-11-15T09:39:01;102055.80;;;6.12
65290;BMP180;51893;59.754;10.110;2022-11-15T09:44:59;102058.20;;;6.20
65290;BMP180;51893;59.754;10.110;2022-11-15T09:48:31;102056.60;;;6.20
65290;BMP180;51893;59.754;10.110;2022-11-15T09:50:58;102057.80;;;6.20
65290;BMP180;51893;59.754;10.110;2022-11-15T09:53:56;102063.00;;;6.20
65290;BMP180;51893;59.754;10.110;2022-11-15T09:56:48;102065.00;;;6.20
65290;BMP180;51893;59.754;10.110;2022-11-15T10:02:46;102074.20;;;6.20
65290;BMP180;51893;59.754;10.110;2022-11-15T10:05:26;102074.40;;;6.24
65290;BMP180;51893;59.754;10.110;2022-11-15T10:10:59;102074.40;;;6.20
65290;BMP180;51893;59.754;10.110;2022-11-15T10:13:53;102074.40;;;6.20
65290;BMP180;51893;59.754;10.110;2022-11-15T10:20:15;102074.20;;;6.20
65290;BMP180;51893;59.754;10.110;2022-11-15T10:23:17;102073.80;;;6.20
65290;BMP180;51893;59.754;10.110;2022-11-15T10:25:44;102079.20;;;6.20
65290;BMP180;51893;59.754;10.110;2022-11-15T10:28:28;102082.20;;;6.20
65290;BMP180;51893;59.754;10.110;2022-11-15T10:31:01;102082.40;;;6.22
65290;BMP180;51893;59.754;10.110;2022-11-15T10:33:35;102083.80;;;6.30
65290;BMP180;51893;59.754;10.110;2022-11-15T10:39:03;102080.20;;;6.30
65290;BMP180;51893;59.754;10.110;2022-11-15T10:42:28;102086.80;;;6.30
65290;BMP180;51893;59.754;10.110;2022-11-15T10:44:57;102092.60;;;6.30
65290;BMP180;51893;59.754;10.110;2022-11-15T10:47:33;102088.00;;;6.30
65290;BMP180;51893;59.754;10.110;2022-11-15T10:50:28;102090.60;;;6.30
65290;BMP180;51893;59.754;10.110;2022-11-15T10:52:58;102086.60;;;6.38
65290;BMP180;51893;59.754;10.110;2022-11-15T10:55:31;102082.40;;;6.30
65290;BMP180;51893;59.754;10.110;2022-11-15T10:58:37;102081.00;;;6.30
65290;BMP180;51893;59.754;10.110;2022-11-15T11:04:08;102080.60;;;6.40
65290;BMP180;51893;59.754;10.110;2022-11-15T11:06:59;102079.20;;;6.40
65290;BMP180;51893;59.754;10.110;2022-11-15T11:09:39;102084.20;;;6.38
65290;BMP180;51893;59.754;10.110;2022-11-15T11:12:12;102078.80;;;6.38
65290;BMP180;51893;59.754;10.110;2022-11-15T11:14:42;102078.40;;;6.36
65290;BMP180;51893;59.754;10.110;2022-11-15T11:17:22;102075.20;;;6.38
65290;BMP180;51893;59.754;10.110;2022-11-15T11:23:31;102074.80;;;6.30
65290;BMP180;51893;59.754;10.110;2022-11-15T11:35:38;102079.20;;;6.30
65290;BMP180;51893;59.754;10.110;2022-11-15T11:38:34;102073.80;;;6.30
65290;BMP180;51893;59.754;10.110;2022-11-15T11:47:03;102076.40;;;6.30
65290;BMP180;51893;59.754;10.110;2022-11-15T11:49:51;102077.40;;;6.30
65290;BMP180;51893;59.754;10.110;2022-11-15T11:52:41;102074.00;;;6.30
65290;BMP180;51893;59.754;10.110;2022-11-15T11:55:34;102080.20;;;6.30
65290;BMP180;51893;59.754;10.110;2022-11-15T11:58:43;102081.20;;;6.30
65290;BMP180;51893;59.754;10.110;2022-11-15T12:01:42;102086.80;;;6.30
65290;BMP180;51893;59.754;10.110;2022-11-15T12:04:38;102079.60;;;6.30
65290;BMP180;51893;59.754;10.110;2022-11-15T12:07:24;102079.20;;;6.30
65290;BMP180;51893;59.754;10.110;2022-11-15T12:10:03;102077.20;;;6.30
65290;BMP180;51893;59.754;10.110;2022-11-15T12:12:52;102082.60;;;6.30
65290;BMP180;51893;59.754;10.110;2022-11-15T12:15:30;102079.80;;;6.30
65290;BMP180;51893;59.754;10.110;2022-11-15T12:18:02;102086.40;;;6.30
65290;BMP180;51893;59.754;10.110;2022-11-15T12:20:40;102086.80;;;6.30
65290;BMP180;51893;59.754;10.110;2022-11-15T12:23:24;102083.80;;;6.30
65290;BMP180;51893;59.754;10.110;2022-11-15T12:26:10;102088.40;;;6.30
65290;BMP180;51893;59.754;10.110;2022-11-15T12:29:28;102094.40;;;6.28
65290;BMP180;51893;59.754;10.110;2022-11-15T12:32:03;102097.60;;;6.30
65290;BMP180;51893;59.754;10.110;2022-11-15T12:35:03;102100.60;;;6.30
65290;BMP180;51893;59.754;10.110;2022-11-15T12:40:32;102103.00;;;6.20
65290;BMP180;51893;59.754;10.110;2022-11-15T12:45:47;102103.40;;;6.20
65290;BMP180;51893;59.754;10.110;2022-11-15T12:59:06;102096.20;;;6.30
65290;BMP180;51893;59.754;10.110;2022-11-15T13:06:51;102091.20;;;6.30
65290;BMP180;51893;59.754;10.110;2022-11-15T13:15:00;102093.60;;;6.30
65290;BMP180;51893;59.754;10.110;2022-11-15T13:17:47;102101.80;;;6.32
65290;BMP180;51893;59.754;10.110;2022-11-15T13:20:30;102096.80;;;6.32
65290;BMP180;51893;59.754;10.110;2022-11-15T13:23:15;102095.60;;;6.32
65290;BMP180;51893;59.754;10.110;2022-11-15T13:26:02;102101.00;;;6.32
65290;BMP180;51893;59.754;10.110;2022-11-15T13:28:47;102094.00;;;6.40
65290;BMP180;51893;59.754;10.110;2022-11-15T13:31:34;102098.60;;;6.40
65290;BMP180;51893;59.754;10.110;2022-11-15T13:34:32;102092.00;;;6.40
65290;BMP180;51893;59.754;10.110;2022-11-15T13:39:50;102089.20;;;6.40
65290;BMP180;51893;59.754;10.110;2022-11-15T13:42:22;102092.20;;;6.34
65290;BMP180;51893;59.754;10.110;2022-11-15T13:45:04;102088.00;;;6.30
65290;BMP180;51893;59.754;10.110;2022-11-15T13:47:35;102077.60;;;6.38
65290;BMP180;51893;59.754;10.110;2022-11-15T13:50:03;102076.00;;;6.40
65290;BMP180;51893;59.754;10.110;2022-11-15T13:52:44;102078.20;;;6.40
65290;BMP180;51893;59.754;10.110;2022-11-15T13:55:19;102075.40;;;6.34
65290;BMP180;51893;59.754;10.110;2022-11-15T13:57:57;102071.20;;;6.30
65290;BMP180;51893;59.754;10.110;2022-11-15T14:03:21;102072.00;;;6.36
65290;BMP180;51893;59.754;10.110;2022-11-15T14:06:12;102076.00;;;6.34
65290;BMP180;51893;59.754;10.110;2022-11-15T14:11:50;102079.40;;;6.36
65290;BMP180;51893;59.754;10.110;2022-11-15T14:14:22;102074.40;;;6.38
65290;BMP180;51893;59.754;10.110;2022-11-15T14:16:59;102071.20;;;6.40
65290;BMP180;51893;59.754;10.110;2022-11-15T14:19:38;102077.40;;;6.38
65290;BMP180;51893;59.754;10.110;2022-11-15T14:22:20;102086.20;;;6.30
65290;BMP180;51893;59.754;10.110;2022-11-15T14:25:17;102078.40;;;6.38
65290;BMP180;51893;59.754;10.110;2022-11-15T14:30:56;102071.80;;;6.40
65290;BMP180;51893;59.754;10.110;2022-11-15T14:33:35;102069.80;;;6.36
65290;BMP180;51893;59.754;10.110;2022-11-15T14:36:19;102063.40;;;6.30
65290;BMP180;51893;59.754;10.110;2022-11-15T14:38:49;102067.20;;;6.30
65290;BMP180;51893;59.754;10.110;2022-11-15T14:41:22;102067.20;;;6.30
65290;BMP180;51893;59.754;10.110;2022-11-15T14:43:53;102070.20;;;6.30
65290;BMP180;51893;59.754;10.110;2022-11-15T14:46:24;102072.40;;;6.30
65290;BMP180;51893;59.754;10.110;2022-11-15T14:48:53;102075.40;;;6.30
65290;BMP180;51893;59.754;10.110;2022-11-15T14:51:21;102078.00;;;6.30
65290;BMP180;51893;59.754;10.110;2022-11-15T14:53:52;102079.80;;;6.30
65290;BMP180;51893;59.754;10.110;2022-11-15T14:56:21;102075.80;;;6.30
65290;BMP180;51893;59.754;10.110;2022-11-15T14:58:49;102078.60;;;6.30
65290;BMP180;51893;59.754;10.110;2022-11-15T15:01:25;102075.80;;;6.28
65290;BMP180;51893;59.754;10.110;2022-11-15T15:03:54;102076.60;;;6.24
65290;BMP180;51893;59.754;10.110;2022-11-15T15:06:25;102077.40;;;6.20
65290;BMP180;51893;59.754;10.110;2022-11-15T15:08:58;102069.00;;;6.20
65290;BMP180;51893;59.754;10.110;2022-11-15T15:11:32;102073.80;;;6.30
65290;BMP180;51893;59.754;10.110;2022-11-15T15:14:00;102076.80;;;6.30
65290;BMP180;51893;59.754;10.110;2022-11-15T15:16:31;102078.20;;;6.30
65290;BMP180;51893;59.754;10.110;2022-11-15T15:19:00;102078.60;;;6.30
65290;BMP180;51893;59.754;10.110;2022-11-15T15:21:30;102081.40;;;6.30
65290;BMP180;51893;59.754;10.110;2022-11-15T15:24:05;102089.80;;;6.30
65290;BMP180;51893;59.754;10.110;2022-11-15T15:26:33;102086.00;;;6.30
65290;BMP180;51893;59.754;10.110;2022-11-15T15:29:04;102081.80;;;6.30
65290;BMP180;51893;59.754;10.110;2022-11-15T15:31:33;102077.80;;;6.30
65290;BMP180;51893;59.754;10.110;2022-11-15T15:34:05;102082.20;;;6.30
65290;BMP180;51893;59.754;10.110;2022-11-15T15:36:37;102084.60;;;6.30
65290;BMP180;51893;59.754;10.110;2022-11-15T15:39:09;102084.20;;;6.30
65290;BMP180;51893;59.754;10.110;2022-11-15T15:41:38;102086.20;;;6.30
65290;BMP180;51893;59.754;10.110;2022-11-15T15:44:09;102093.60;;;6.30
65290;BMP180;51893;59.754;10.110;2022-11-15T15:46:38;102096.60;;;6.30
65290;BMP180;51893;59.754;10.110;2022-11-15T15:49:09;102094.60;;;6.30
65290;BMP180;51893;59.754;10.110;2022-11-15T15:51:37;102093.00;;;6.30
65290;BMP180;51893;59.754;10.110;2022-11-15T15:54:10;102092.00;;;6.30
65290;BMP180;51893;59.754;10.110;2022-11-15T15:56:39;102088.40;;;6.22
65290;BMP180;51893;59.754;10.110;2022-11-15T15:59:07;102091.20;;;6.20
65290;BMP180;51893;59.754;10.110;2022-11-15T16:01:35;102096.20;;;6.28
65290;BMP180;51893;59.754;10.110;2022-11-15T16:04:04;102101.20;;;6.28
65290;BMP180;51893;59.754;10.110;2022-11-15T16:06:39;102111.20;;;6.22
65290;BMP180;51893;59.754;10.110;2022-11-15T16:09:16;102115.20;;;6.20
65290;BMP180;51893;59.754;10.110;2022-11-15T16:11:48;102129.20;;;6.20
65290;BMP180;51893;59.754;10.110;2022-11-15T16:14:17;102130.40;;;6.20
65290;BMP180;51893;59.754;10.110;2022-11-15T16:16:49;102135.80;;;6.10
65290;BMP180;51893;59.754;10.110;2022-11-15T16:19:19;102145.00;;;6.10
65290;BMP180;51893;59.754;10.110;2022-11-15T16:21:47;102144.80;;;6.10